Terminal Aerodrome Forecast
Issued by NWS

Home | Current Version | Previous Version | Text Only | Print | Product List | Glossary On
Versions: 1 2 3 4 5 6 7 8 9 10 11 12 13 14
000
FTUS44 KSJT 311200 AAA
TAFJCT
TAF AMD
KJCT 311237Z 3113/0112 VRB04KT P6SM BKN025
     FM311400 35008KT P6SM BKN020 BKN100
     FM311900 01008KT P6SM BKN040
     FM010200 03006KT P6SM BKN100=

USA.gov is the U.S. government's official web portal to all federal, state and local government web resources and services.